sensor_id;sensor_type;location;lat;lon;timestamp;P1;durP1;ratioP1;P2;durP2;ratioP2
35667;SDS011;22158;59.280;17.806;2023-01-28T05:01:20;1.80;;;1.02;;
35667;SDS011;22158;59.280;17.806;2023-01-28T05:03:46;1.52;;;1.42;;
35667;SDS011;22158;59.280;17.806;2023-01-28T05:06:12;4.28;;;1.30;;
35667;SDS011;22158;59.280;17.806;2023-01-28T05:08:38;1.67;;;0.90;;
35667;SDS011;22158;59.280;17.806;2023-01-28T05:11:03;1.23;;;0.60;;
35667;SDS011;22158;59.280;17.806;2023-01-28T05:13:29;1.15;;;0.85;;
35667;SDS011;22158;59.280;17.806;2023-01-28T05:15:55;2.08;;;0.80;;
35667;SDS011;22158;59.280;17.806;2023-01-28T05:18:20;1.58;;;1.30;;
35667;SDS011;22158;59.280;17.806;2023-01-28T05:20:46;4.20;;;0.85;;
35667;SDS011;22158;59.280;17.806;2023-01-28T05:23:12;2.83;;;1.10;;
35667;SDS011;22158;59.280;17.806;2023-01-28T05:25:37;2.08;;;1.10;;
35667;SDS011;22158;59.280;17.806;2023-01-28T05:28:03;1.98;;;1.35;;
35667;SDS011;22158;59.280;17.806;2023-01-28T05:30:29;4.25;;;1.02;;
35667;SDS011;22158;59.280;17.806;2023-01-28T05:32:55;1.02;;;0.70;;
35667;SDS011;22158;59.280;17.806;2023-01-28T05:35:21;3.17;;;1.20;;
35667;SDS011;22158;59.280;17.806;2023-01-28T05:37:47;0.65;;;0.60;;
35667;SDS011;22158;59.280;17.806;2023-01-28T05:40:13;1.92;;;0.90;;
35667;SDS011;22158;59.280;17.806;2023-01-28T05:42:39;1.42;;;0.90;;
35667;SDS011;22158;59.280;17.806;2023-01-28T05:45:04;2.55;;;1.42;;
35667;SDS011;22158;59.280;17.806;2023-01-28T05:47:32;3.13;;;0.80;;
35667;SDS011;22158;59.280;17.806;2023-01-28T05:49:58;0.70;;;0.70;;
35667;SDS011;22158;59.280;17.806;2023-01-28T05:52:23;1.52;;;0.95;;
35667;SDS011;22158;59.280;17.806;2023-01-28T05:54:49;3.70;;;0.98;;
35667;SDS011;22158;59.280;17.806;2023-01-28T05:57:15;0.90;;;0.70;;
35667;SDS011;22158;59.280;17.806;2023-01-28T05:59:40;3.60;;;1.08;;
35667;SDS011;22158;59.280;17.806;2023-01-28T06:02:06;0.90;;;0.80;;
35667;SDS011;22158;59.280;17.806;2023-01-28T06:04:31;2.60;;;0.93;;
35667;SDS011;22158;59.280;17.806;2023-01-28T06:06:57;3.35;;;1.17;;
35667;SDS011;22158;59.280;17.806;2023-01-28T06:09:23;1.15;;;1.00;;
35667;SDS011;22158;59.280;17.806;2023-01-28T06:11:49;1.13;;;0.98;;
35667;SDS011;22158;59.280;17.806;2023-01-28T06:14:15;1.25;;;0.73;;
35667;SDS011;22158;59.280;17.806;2023-01-28T06:16:40;1.40;;;0.80;;
35667;SDS011;22158;59.280;17.806;2023-01-28T06:19:06;0.75;;;0.75;;
35667;SDS011;22158;59.280;17.806;2023-01-28T06:21:32;2.72;;;1.17;;
35667;SDS011;22158;59.280;17.806;2023-01-28T06:23:57;7.03;;;3.10;;
35667;SDS011;22158;59.280;17.806;2023-01-28T06:26:23;2.97;;;1.15;;
35667;SDS011;22158;59.280;17.806;2023-01-28T06:28:51;4.07;;;1.10;;
35667;SDS011;22158;59.280;17.806;2023-01-28T06:31:17;2.10;;;1.50;;
35667;SDS011;22158;59.280;17.806;2023-01-28T06:33:43;7.53;;;0.90;;
35667;SDS011;22158;59.280;17.806;2023-01-28T06:36:09;1.63;;;1.00;;
35667;SDS011;22158;59.280;17.806;2023-01-28T06:38:34;2.03;;;1.15;;
35667;SDS011;22158;59.280;17.806;2023-01-28T06:41:02;3.88;;;1.27;;
35667;SDS011;22158;59.280;17.806;2023-01-28T06:43:30;1.08;;;0.63;;
35667;SDS011;22158;59.280;17.806;2023-01-28T06:45:56;2.08;;;1.05;;
35667;SDS011;22158;59.280;17.806;2023-01-28T06:48:23;1.52;;;0.80;;
35667;SDS011;22158;59.280;17.806;2023-01-28T06:50:49;4.60;;;1.08;;
35667;SDS011;22158;59.280;17.806;2023-01-28T06:53:15;0.68;;;0.68;;
35667;SDS011;22158;59.280;17.806;2023-01-28T06:55:42;3.80;;;1.17;;
35667;SDS011;22158;59.280;17.806;2023-01-28T06:58:07;2.45;;;0.98;;
35667;SDS011;22158;59.280;17.806;2023-01-28T07:00:33;3.00;;;1.00;;
35667;SDS011;22158;59.280;17.806;2023-01-28T07:02:59;4.30;;;1.27;;
35667;SDS011;22158;59.280;17.806;2023-01-28T07:05:25;1.98;;;1.27;;
35667;SDS011;22158;59.280;17.806;2023-01-28T07:07:50;2.78;;;1.15;;
35667;SDS011;22158;59.280;17.806;2023-01-28T07:10:16;4.65;;;1.20;;
35667;SDS011;22158;59.280;17.806;2023-01-28T07:12:42;1.98;;;1.25;;
35667;SDS011;22158;59.280;17.806;2023-01-28T07:15:10;4.25;;;1.33;;
35667;SDS011;22158;59.280;17.806;2023-01-28T07:17:42;2.72;;;0.98;;
35667;SDS011;22158;59.280;17.806;2023-01-28T07:20:09;4.45;;;1.10;;
35667;SDS011;22158;59.280;17.806;2023-01-28T07:22:37;2.55;;;1.52;;
35667;SDS011;22158;59.280;17.806;2023-01-28T07:25:06;3.42;;;1.67;;
35667;SDS011;22158;59.280;17.806;2023-01-28T07:27:32;1.70;;;0.80;;
35667;SDS011;22158;59.280;17.806;2023-01-28T07:29:58;3.50;;;1.30;;
35667;SDS011;22158;59.280;17.806;2023-01-28T07:32:31;5.90;;;1.60;;
35667;SDS011;22158;59.280;17.806;2023-01-28T07:34:56;5.50;;;1.80;;
35667;SDS011;22158;59.280;17.806;2023-01-28T07:37:22;4.60;;;2.17;;
35667;SDS011;22158;59.280;17.806;2023-01-28T07:39:48;3.00;;;1.40;;
35667;SDS011;22158;59.280;17.806;2023-01-28T07:42:14;9.65;;;1.38;;
35667;SDS011;22158;59.280;17.806;2023-01-28T07:44:39;3.72;;;1.85;;
35667;SDS011;22158;59.280;17.806;2023-01-28T07:47:05;3.33;;;1.70;;
35667;SDS011;22158;59.280;17.806;2023-01-28T07:49:34;11.65;;;1.80;;
35667;SDS011;22158;59.280;17.806;2023-01-28T07:52:01;1.80;;;1.42;;
35667;SDS011;22158;59.280;17.806;2023-01-28T07:54:27;1.73;;;1.08;;
35667;SDS011;22158;59.280;17.806;2023-01-28T07:56:53;4.22;;;1.60;;
35667;SDS011;22158;59.280;17.806;2023-01-28T07:59:19;13.02;;;1.75;;
35667;SDS011;22158;59.280;17.806;2023-01-28T08:01:44;6.82;;;1.83;;
35667;SDS011;22158;59.280;17.806;2023-01-28T08:04:10;7.00;;;1.45;;
35667;SDS011;22158;59.280;17.806;2023-01-28T08:06:36;5.15;;;1.67;;
35667;SDS011;22158;59.280;17.806;2023-01-28T08:09:05;3.17;;;1.60;;
35667;SDS011;22158;59.280;17.806;2023-01-28T08:11:37;3.97;;;1.58;;
35667;SDS011;22158;59.280;17.806;2023-01-28T08:14:03;3.40;;;1.63;;
35667;SDS011;22158;59.280;17.806;2023-01-28T08:16:28;5.93;;;1.60;;
35667;SDS011;22158;59.280;17.806;2023-01-28T08:18:55;2.92;;;1.73;;
35667;SDS011;22158;59.280;17.806;2023-01-28T08:21:21;5.25;;;2.03;;
35667;SDS011;22158;59.280;17.806;2023-01-28T08:23:46;6.70;;;1.73;;
35667;SDS011;22158;59.280;17.806;2023-01-28T08:26:12;8.52;;;3.13;;
35667;SDS011;22158;59.280;17.806;2023-01-28T08:28:38;5.70;;;2.15;;
35667;SDS011;22158;59.280;17.806;2023-01-28T08:31:04;7.75;;;2.05;;
35667;SDS011;22158;59.280;17.806;2023-01-28T08:33:30;6.70;;;1.90;;
35667;SDS011;22158;59.280;17.806;2023-01-28T08:35:55;3.53;;;1.02;;
35667;SDS011;22158;59.280;17.806;2023-01-28T08:38:22;7.95;;;1.73;;
35667;SDS011;22158;59.280;17.806;2023-01-28T08:40:48;7.68;;;1.88;;
35667;SDS011;22158;59.280;17.806;2023-01-28T08:43:14;5.03;;;1.83;;
35667;SDS011;22158;59.280;17.806;2023-01-28T08:45:43;7.40;;;1.95;;
35667;SDS011;22158;59.280;17.806;2023-01-28T08:48:10;3.53;;;1.77;;
35667;SDS011;22158;59.280;17.806;2023-01-28T08:50:39;11.45;;;2.53;;
35667;SDS011;22158;59.280;17.806;2023-01-28T08:53:09;7.05;;;2.03;;
35667;SDS011;22158;59.280;17.806;2023-01-28T08:55:36;4.47;;;1.88;;
35667;SDS011;22158;59.280;17.806;2023-01-28T08:58:04;2.67;;;1.30;;
35667;SDS011;22158;59.280;17.806;2023-01-28T09:00:31;2.85;;;1.70;;
35667;SDS011;22158;59.280;17.806;2023-01-28T09:02:57;5.35;;;2.13;;
35667;SDS011;22158;59.280;17.806;2023-01-28T09:05:23;4.35;;;2.13;;
35667;SDS011;22158;59.280;17.806;2023-01-28T09:07:48;6.00;;;2.08;;
35667;SDS011;22158;59.280;17.806;2023-01-28T09:10:15;7.43;;;2.40;;
35667;SDS011;22158;59.280;17.806;2023-01-28T09:12:41;7.70;;;2.50;;
35667;SDS011;22158;59.280;17.806;2023-01-28T09:15:08;2.83;;;1.67;;
35667;SDS011;22158;59.280;17.806;2023-01-28T09:17:34;4.28;;;1.77;;
35667;SDS011;22158;59.280;17.806;2023-01-28T09:19:59;9.82;;;2.08;;
35667;SDS011;22158;59.280;17.806;2023-01-28T09:22:25;4.97;;;1.40;;
35667;SDS011;22158;59.280;17.806;2023-01-28T09:24:51;5.05;;;1.90;;
35667;SDS011;22158;59.280;17.806;2023-01-28T09:27:16;4.35;;;1.67;;
35667;SDS011;22158;59.280;17.806;2023-01-28T09:29:42;7.97;;;1.92;;
35667;SDS011;22158;59.280;17.806;2023-01-28T09:32:08;5.68;;;1.67;;
35667;SDS011;22158;59.280;17.806;2023-01-28T09:34:33;5.43;;;2.03;;
35667;SDS011;22158;59.280;17.806;2023-01-28T09:36:59;7.38;;;2.38;;
35667;SDS011;22158;59.280;17.806;2023-01-28T09:39:25;2.58;;;1.67;;
35667;SDS011;22158;59.280;17.806;2023-01-28T09:50:32;5.95;;;2.03;;
35667;SDS011;22158;59.280;17.806;2023-01-28T09:58:24;4.25;;;1.60;;
35667;SDS011;22158;59.280;17.806;2023-01-28T10:17:33;10.10;;;2.25;;
35667;SDS011;22158;59.280;17.806;2023-01-28T10:22:43;7.00;;;1.58;;
35667;SDS011;22158;59.280;17.806;2023-01-28T10:25:23;3.47;;;1.90;;
35667;SDS011;22158;59.280;17.806;2023-01-28T10:27:52;4.20;;;2.10;;
35667;SDS011;22158;59.280;17.806;2023-01-28T10:30:22;3.92;;;1.60;;
35667;SDS011;22158;59.280;17.806;2023-01-28T10:35:15;4.25;;;1.80;;
35667;SDS011;22158;59.280;17.806;2023-01-28T10:37:40;4.63;;;1.85;;
35667;SDS011;22158;59.280;17.806;2023-01-28T10:40:11;5.22;;;1.90;;
35667;SDS011;22158;59.280;17.806;2023-01-28T10:42:41;6.20;;;2.03;;
35667;SDS011;22158;59.280;17.806;2023-01-28T10:45:30;5.10;;;2.13;;
35667;SDS011;22158;59.280;17.806;2023-01-28T10:50:26;8.90;;;2.85;;
35667;SDS011;22158;59.280;17.806;2023-01-28T10:52:54;5.28;;;3.10;;
35667;SDS011;22158;59.280;17.806;2023-01-28T10:55:28;8.30;;;2.40;;
35667;SDS011;22158;59.280;17.806;2023-01-28T10:57:58;10.75;;;2.45;;
35667;SDS011;22158;59.280;17.806;2023-01-28T11:02:51;8.52;;;4.57;;
35667;SDS011;22158;59.280;17.806;2023-01-28T11:05:20;5.78;;;1.92;;
35667;SDS011;22158;59.280;17.806;2023-01-28T11:07:50;9.70;;;2.42;;
35667;SDS011;22158;59.280;17.806;2023-01-28T11:10:31;6.00;;;2.03;;
35667;SDS011;22158;59.280;17.806;2023-01-28T11:13:11;5.53;;;1.92;;
35667;SDS011;22158;59.280;17.806;2023-01-28T11:18:46;7.55;;;2.45;;
35667;SDS011;22158;59.280;17.806;2023-01-28T11:21:19;5.95;;;1.60;;
35667;SDS011;22158;59.280;17.806;2023-01-28T11:23:58;7.22;;;2.55;;
35667;SDS011;22158;59.280;17.806;2023-01-28T11:26:30;3.58;;;1.35;;
35667;SDS011;22158;59.280;17.806;2023-01-28T11:28:59;3.42;;;1.70;;
35667;SDS011;22158;59.280;17.806;2023-01-28T11:31:25;4.38;;;2.53;;
35667;SDS011;22158;59.280;17.806;2023-01-28T11:33:55;5.38;;;1.58;;
35667;SDS011;22158;59.280;17.806;2023-01-28T11:36:29;2.55;;;1.63;;
35667;SDS011;22158;59.280;17.806;2023-01-28T11:39:00;10.05;;;2.22;;
35667;SDS011;22158;59.280;17.806;2023-01-28T11:43:58;7.82;;;1.60;;
35667;SDS011;22158;59.280;17.806;2023-01-28T11:52:27;10.15;;;2.00;;
35667;SDS011;22158;59.280;17.806;2023-01-28T12:05:52;10.30;;;2.47;;
35667;SDS011;22158;59.280;17.806;2023-01-28T12:11:08;3.47;;;2.20;;
35667;SDS011;22158;59.280;17.806;2023-01-28T12:14:32;14.40;;;1.83;;
35667;SDS011;22158;59.280;17.806;2023-01-28T12:36:10;3.53;;;1.60;;
35667;SDS011;22158;59.280;17.806;2023-01-28T12:41:33;6.20;;;2.50;;
35667;SDS011;22158;59.280;17.806;2023-01-28T12:44:28;4.75;;;2.13;;
35667;SDS011;22158;59.280;17.806;2023-01-28T12:46:56;5.10;;;1.73;;
35667;SDS011;22158;59.280;17.806;2023-01-28T12:54:57;6.63;;;1.40;;
35667;SDS011;22158;59.280;17.806;2023-01-28T12:57:41;5.70;;;1.48;;
35667;SDS011;22158;59.280;17.806;2023-01-28T13:03:10;3.42;;;1.35;;
35667;SDS011;22158;59.280;17.806;2023-01-28T13:05:44;6.50;;;1.48;;
35667;SDS011;22158;59.280;17.806;2023-01-28T13:10:40;5.82;;;1.88;;
35667;SDS011;22158;59.280;17.806;2023-01-28T13:13:15;3.58;;;1.80;;
35667;SDS011;22158;59.280;17.806;2023-01-28T13:15:51;4.07;;;2.33;;
35667;SDS011;22158;59.280;17.806;2023-01-28T13:21:50;5.95;;;2.00;;
35667;SDS011;22158;59.280;17.806;2023-01-28T13:31:54;4.45;;;1.60;;
35667;SDS011;22158;59.280;17.806;2023-01-28T13:34:27;5.50;;;1.67;;
35667;SDS011;22158;59.280;17.806;2023-01-28T13:36:57;5.85;;;1.70;;
35667;SDS011;22158;59.280;17.806;2023-01-28T13:39:25;3.53;;;1.95;;
35667;SDS011;22158;59.280;17.806;2023-01-28T13:41:53;6.28;;;1.80;;
35667;SDS011;22158;59.280;17.806;2023-01-28T13:44:34;4.78;;;1.83;;
35667;SDS011;22158;59.280;17.806;2023-01-28T13:49:36;6.57;;;2.42;;
35667;SDS011;22158;59.280;17.806;2023-01-28T13:54:36;6.10;;;2.20;;
35667;SDS011;22158;59.280;17.806;2023-01-28T13:57:20;4.70;;;2.55;;
35667;SDS011;22158;59.280;17.806;2023-01-28T14:00:17;5.53;;;2.03;;
35667;SDS011;22158;59.280;17.806;2023-01-28T14:06:19;5.97;;;1.70;;
35667;SDS011;22158;59.280;17.806;2023-01-28T14:08:44;6.32;;;1.67;;
35667;SDS011;22158;59.280;17.806;2023-01-28T14:16:57;4.28;;;1.42;;
35667;SDS011;22158;59.280;17.806;2023-01-28T14:19:32;4.05;;;1.65;;
35667;SDS011;22158;59.280;17.806;2023-01-28T14:22:05;8.40;;;1.88;;
35667;SDS011;22158;59.280;17.806;2023-01-28T14:24:36;11.25;;;2.67;;
35667;SDS011;22158;59.280;17.806;2023-01-28T14:32:13;13.85;;;6.10;;
35667;SDS011;22158;59.280;17.806;2023-01-28T14:34:42;9.40;;;3.83;;
35667;SDS011;22158;59.280;17.806;2023-01-28T14:37:14;4.43;;;2.00;;
35667;SDS011;22158;59.280;17.806;2023-01-28T14:39:52;4.03;;;1.20;;
35667;SDS011;22158;59.280;17.806;2023-01-28T14:42:29;9.65;;;2.40;;
35667;SDS011;22158;59.280;17.806;2023-01-28T14:45:09;5.68;;;1.90;;
35667;SDS011;22158;59.280;17.806;2023-01-28T14:58:43;2.45;;;1.40;;
35667;SDS011;22158;59.280;17.806;2023-01-28T15:01:22;5.82;;;1.70;;
35667;SDS011;22158;59.280;17.806;2023-01-28T15:03:49;6.22;;;1.48;;
35667;SDS011;22158;59.280;17.806;2023-01-28T15:06:16;5.80;;;1.80;;
35667;SDS011;22158;59.280;17.806;2023-01-28T15:09:03;7.68;;;2.10;;
35667;SDS011;22158;59.280;17.806;2023-01-28T15:11:34;4.63;;;1.40;;
35667;SDS011;22158;59.280;17.806;2023-01-28T15:14:03;7.20;;;1.77;;
35667;SDS011;22158;59.280;17.806;2023-01-28T15:16:36;7.53;;;1.60;;
35667;SDS011;22158;59.280;17.806;2023-01-28T15:19:04;4.90;;;2.25;;
35667;SDS011;22158;59.280;17.806;2023-01-28T15:21:33;9.35;;;1.95;;
35667;SDS011;22158;59.280;17.806;2023-01-28T15:23:59;5.13;;;1.65;;
35667;SDS011;22158;59.280;17.806;2023-01-28T15:26:28;8.68;;;1.98;;
35667;SDS011;22158;59.280;17.806;2023-01-28T15:28:56;4.18;;;1.50;;
35667;SDS011;22158;59.280;17.806;2023-01-28T15:31:30;4.43;;;1.50;;
35667;SDS011;22158;59.280;17.806;2023-01-28T15:34:17;6.80;;;1.88;;
35667;SDS011;22158;59.280;17.806;2023-01-28T15:36:44;6.05;;;1.90;;
35667;SDS011;22158;59.280;17.806;2023-01-28T15:39:14;3.00;;;1.60;;
35667;SDS011;22158;59.280;17.806;2023-01-28T15:41:46;3.20;;;1.60;;
35667;SDS011;22158;59.280;17.806;2023-01-28T15:44:16;10.40;;;2.22;;
35667;SDS011;22158;59.280;17.806;2023-01-28T15:49:49;5.60;;;1.85;;
35667;SDS011;22158;59.280;17.806;2023-01-28T15:52:20;2.33;;;1.50;;
35667;SDS011;22158;59.280;17.806;2023-01-28T15:54:53;5.78;;;1.65;;
35667;SDS011;22158;59.280;17.806;2023-01-28T15:57:19;3.05;;;1.63;;
35667;SDS011;22158;59.280;17.806;2023-01-28T15:59:46;9.32;;;1.60;;
35667;SDS011;22158;59.280;17.806;2023-01-28T16:02:24;5.80;;;3.25;;
35667;SDS011;22158;59.280;17.806;2023-01-28T16:05:00;5.57;;;1.70;;
35667;SDS011;22158;59.280;17.806;2023-01-28T16:07:28;13.07;;;2.50;;
35667;SDS011;22158;59.280;17.806;2023-01-28T16:10:15;12.38;;;3.72;;
35667;SDS011;22158;59.280;17.806;2023-01-28T16:12:50;16.60;;;3.28;;
35667;SDS011;22158;59.280;17.806;2023-01-28T16:15:19;6.03;;;2.05;;
35667;SDS011;22158;59.280;17.806;2023-01-28T16:17:49;12.07;;;3.05;;
35667;SDS011;22158;59.280;17.806;2023-01-28T16:22:45;4.03;;;2.22;;
35667;SDS011;22158;59.280;17.806;2023-01-28T16:27:46;6.53;;;2.35;;
35667;SDS011;22158;59.280;17.806;2023-01-28T16:30:13;4.07;;;2.00;;
35667;SDS011;22158;59.280;17.806;2023-01-28T16:32:39;5.25;;;1.85;;
35667;SDS011;22158;59.280;17.806;2023-01-28T16:35:16;4.22;;;1.88;;
35667;SDS011;22158;59.280;17.806;2023-01-28T16:37:44;4.85;;;1.95;;
35667;SDS011;22158;59.280;17.806;2023-01-28T16:40:12;10.18;;;2.15;;
35667;SDS011;22158;59.280;17.806;2023-01-28T16:42:39;5.20;;;2.17;;
35667;SDS011;22158;59.280;17.806;2023-01-28T16:45:04;3.15;;;1.92;;
35667;SDS011;22158;59.280;17.806;2023-01-28T16:47:31;4.70;;;1.80;;
35667;SDS011;22158;59.280;17.806;2023-01-28T16:49:57;3.08;;;2.00;;
35667;SDS011;22158;59.280;17.806;2023-01-28T16:52:22;8.50;;;2.03;;
35667;SDS011;22158;59.280;17.806;2023-01-28T16:54:48;10.10;;;2.15;;
35667;SDS011;22158;59.280;17.806;2023-01-28T16:57:14;3.05;;;2.10;;
35667;SDS011;22158;59.280;17.806;2023-01-28T16:59:42;6.30;;;2.63;;
35667;SDS011;22158;59.280;17.806;2023-01-28T17:02:10;9.35;;;3.40;;
35667;SDS011;22158;59.280;17.806;2023-01-28T17:04:37;5.25;;;2.72;;
35667;SDS011;22158;59.280;17.806;2023-01-28T17:07:02;5.70;;;2.47;;
35667;SDS011;22158;59.280;17.806;2023-01-28T17:09:28;7.63;;;3.45;;
35667;SDS011;22158;59.280;17.806;2023-01-28T17:11:54;7.47;;;4.45;;
35667;SDS011;22158;59.280;17.806;2023-01-28T17:14:20;10.55;;;4.38;;
35667;SDS011;22158;59.280;17.806;2023-01-28T17:16:46;8.27;;;3.35;;
35667;SDS011;22158;59.280;17.806;2023-01-28T17:19:12;10.60;;;3.38;;
35667;SDS011;22158;59.280;17.806;2023-01-28T17:21:39;4.57;;;2.40;;
35667;SDS011;22158;59.280;17.806;2023-01-28T17:24:05;6.13;;;2.63;;
35667;SDS011;22158;59.280;17.806;2023-01-28T17:26:31;6.85;;;3.10;;
35667;SDS011;22158;59.280;17.806;2023-01-28T17:28:59;9.60;;;6.40;;
35667;SDS011;22158;59.280;17.806;2023-01-28T17:31:25;11.73;;;5.40;;
35667;SDS011;22158;59.280;17.806;2023-01-28T17:33:54;7.30;;;3.90;;
35667;SDS011;22158;59.280;17.806;2023-01-28T17:36:22;14.20;;;3.70;;
35667;SDS011;22158;59.280;17.806;2023-01-28T17:38:49;9.57;;;4.88;;
35667;SDS011;22158;59.280;17.806;2023-01-28T17:41:15;8.73;;;4.22;;
35667;SDS011;22158;59.280;17.806;2023-01-28T17:43:50;9.45;;;4.40;;
35667;SDS011;22158;59.280;17.806;2023-01-28T17:46:16;9.00;;;4.72;;
35667;SDS011;22158;59.280;17.806;2023-01-28T17:48:43;4.53;;;3.03;;
35667;SDS011;22158;59.280;17.806;2023-01-28T17:51:10;10.15;;;3.70;;
35667;SDS011;22158;59.280;17.806;2023-01-28T17:53:36;13.25;;;4.97;;
35667;SDS011;22158;59.280;17.806;2023-01-28T17:56:02;9.20;;;2.83;;
35667;SDS011;22158;59.280;17.806;2023-01-28T17:58:28;5.18;;;2.85;;
35667;SDS011;22158;59.280;17.806;2023-01-28T18:00:53;5.68;;;3.15;;
35667;SDS011;22158;59.280;17.806;2023-01-28T18:03:19;4.18;;;2.80;;
35667;SDS011;22158;59.280;17.806;2023-01-28T18:05:54;6.32;;;3.83;;
35667;SDS011;22158;59.280;17.806;2023-01-28T18:08:22;7.00;;;3.00;;
35667;SDS011;22158;59.280;17.806;2023-01-28T18:10:47;4.90;;;3.00;;
35667;SDS011;22158;59.280;17.806;2023-01-28T18:13:13;10.20;;;3.38;;
35667;SDS011;22158;59.280;17.806;2023-01-28T18:15:39;8.40;;;3.42;;
35667;SDS011;22158;59.280;17.806;2023-01-28T18:18:04;10.32;;;5.55;;
35667;SDS011;22158;59.280;17.806;2023-01-28T18:20:31;12.20;;;3.83;;
35667;SDS011;22158;59.280;17.806;2023-01-28T18:23:00;9.45;;;3.90;;
35667;SDS011;22158;59.280;17.806;2023-01-28T18:25:26;7.72;;;3.63;;
35667;SDS011;22158;59.280;17.806;2023-01-28T18:27:51;14.35;;;4.68;;
35667;SDS011;22158;59.280;17.806;2023-01-28T18:30:18;7.97;;;3.05;;
35667;SDS011;22158;59.280;17.806;2023-01-28T18:32:43;8.18;;;3.45;;
35667;SDS011;22158;59.280;17.806;2023-01-28T18:35:09;6.85;;;3.25;;
35667;SDS011;22158;59.280;17.806;2023-01-28T18:37:35;5.60;;;2.72;;
35667;SDS011;22158;59.280;17.806;2023-01-28T18:40:01;5.57;;;3.13;;
35667;SDS011;22158;59.280;17.806;2023-01-28T18:42:29;9.05;;;3.22;;
35667;SDS011;22158;59.280;17.806;2023-01-28T18:44:56;12.73;;;5.20;;
35667;SDS011;22158;59.280;17.806;2023-01-28T18:47:30;10.52;;;4.15;;
35667;SDS011;22158;59.280;17.806;2023-01-28T18:49:55;5.03;;;3.47;;
35667;SDS011;22158;59.280;17.806;2023-01-28T18:52:21;11.43;;;4.55;;
35667;SDS011;22158;59.280;17.806;2023-01-28T18:54:47;10.18;;;4.13;;
35667;SDS011;22158;59.280;17.806;2023-01-28T18:57:13;10.32;;;4.53;;
35667;SDS011;22158;59.280;17.806;2023-01-28T18:59:38;12.48;;;6.70;;
35667;SDS011;22158;59.280;17.806;2023-01-28T19:02:04;12.15;;;5.28;;
35667;SDS011;22158;59.280;17.806;2023-01-28T19:04:30;13.70;;;3.60;;
35667;SDS011;22158;59.280;17.806;2023-01-28T19:06:55;5.28;;;2.90;;
35667;SDS011;22158;59.280;17.806;2023-01-28T19:09:21;7.53;;;3.92;;
35667;SDS011;22158;59.280;17.806;2023-01-28T19:11:47;9.68;;;3.70;;
35667;SDS011;22158;59.280;17.806;2023-01-28T19:14:14;5.35;;;3.65;;
35667;SDS011;22158;59.280;17.806;2023-01-28T19:16:43;8.68;;;3.70;;
35667;SDS011;22158;59.280;17.806;2023-01-28T19:19:09;6.32;;;2.00;;
35667;SDS011;22158;59.280;17.806;2023-01-28T19:21:35;8.10;;;2.60;;
35667;SDS011;22158;59.280;17.806;2023-01-28T19:24:03;5.00;;;2.38;;
35667;SDS011;22158;59.280;17.806;2023-01-28T19:26:35;7.47;;;2.70;;
35667;SDS011;22158;59.280;17.806;2023-01-28T19:29:02;10.68;;;2.38;;
35667;SDS011;22158;59.280;17.806;2023-01-28T19:31:31;6.00;;;2.58;;
35667;SDS011;22158;59.280;17.806;2023-01-28T19:33:58;4.57;;;2.28;;
35667;SDS011;22158;59.280;17.806;2023-01-28T19:36:25;4.85;;;2.80;;
35667;SDS011;22158;59.280;17.806;2023-01-28T19:38:56;7.28;;;2.08;;
35667;SDS011;22158;59.280;17.806;2023-01-28T19:41:23;7.03;;;2.20;;
35667;SDS011;22158;59.280;17.806;2023-01-28T19:43:49;12.48;;;2.35;;
35667;SDS011;22158;59.280;17.806;2023-01-28T19:46:15;9.18;;;1.70;;
35667;SDS011;22158;59.280;17.806;2023-01-28T19:48:41;8.05;;;1.70;;
35667;SDS011;22158;59.280;17.806;2023-01-28T19:51:08;6.65;;;2.33;;
35667;SDS011;22158;59.280;17.806;2023-01-28T19:53:35;7.05;;;2.05;;
35667;SDS011;22158;59.280;17.806;2023-01-28T19:56:03;5.22;;;2.83;;
35667;SDS011;22158;59.280;17.806;2023-01-28T19:58:32;3.65;;;1.73;;
35667;SDS011;22158;59.280;17.806;2023-01-28T20:01:02;5.35;;;2.90;;
35667;SDS011;22158;59.280;17.806;2023-01-28T20:03:32;5.55;;;2.55;;
35667;SDS011;22158;59.280;17.806;2023-01-28T20:05:59;5.47;;;2.60;;
35667;SDS011;22158;59.280;17.806;2023-01-28T20:08:26;13.13;;;3.40;;
35667;SDS011;22158;59.280;17.806;2023-01-28T20:11:00;7.38;;;3.28;;
35667;SDS011;22158;59.280;17.806;2023-01-28T20:13:29;9.45;;;3.58;;
35667;SDS011;22158;59.280;17.806;2023-01-28T20:15:56;5.68;;;2.88;;
35667;SDS011;22158;59.280;17.806;2023-01-28T20:18:22;13.75;;;3.28;;
35667;SDS011;22158;59.280;17.806;2023-01-28T20:20:53;8.20;;;2.55;;
35667;SDS011;22158;59.280;17.806;2023-01-28T20:23:20;7.45;;;3.25;;
35667;SDS011;22158;59.280;17.806;2023-01-28T20:25:50;5.55;;;2.22;;
35667;SDS011;22158;59.280;17.806;2023-01-28T20:28:18;5.00;;;3.17;;
35667;SDS011;22158;59.280;17.806;2023-01-28T20:30:47;7.07;;;2.00;;
35667;SDS011;22158;59.280;17.806;2023-01-28T20:33:14;4.93;;;2.25;;
35667;SDS011;22158;59.280;17.806;2023-01-28T20:35:39;6.18;;;2.05;;
35667;SDS011;22158;59.280;17.806;2023-01-28T20:38:06;8.52;;;2.78;;
35667;SDS011;22158;59.280;17.806;2023-01-28T20:40:32;8.23;;;2.42;;
35667;SDS011;22158;59.280;17.806;2023-01-28T20:42:57;6.78;;;2.47;;
35667;SDS011;22158;59.280;17.806;2023-01-28T20:45:23;9.05;;;3.00;;
35667;SDS011;22158;59.280;17.806;2023-01-28T20:47:49;3.60;;;1.98;;
35667;SDS011;22158;59.280;17.806;2023-01-28T20:50:15;8.63;;;2.33;;
35667;SDS011;22158;59.280;17.806;2023-01-28T20:52:41;11.10;;;4.38;;
35667;SDS011;22158;59.280;17.806;2023-01-28T20:55:07;7.32;;;2.20;;
35667;SDS011;22158;59.280;17.806;2023-01-28T20:57:33;10.50;;;2.25;;
35667;SDS011;22158;59.280;17.806;2023-01-28T21:00:02;5.82;;;2.38;;
35667;SDS011;22158;59.280;17.806;2023-01-28T21:02:32;7.53;;;2.55;;
35667;SDS011;22158;59.280;17.806;2023-01-28T21:05:01;9.50;;;2.45;;
35667;SDS011;22158;59.280;17.806;2023-01-28T21:07:28;6.00;;;2.45;;
35667;SDS011;22158;59.280;17.806;2023-01-28T21:09:54;7.95;;;2.63;;
35667;SDS011;22158;59.280;17.806;2023-01-28T21:12:20;8.73;;;2.72;;
35667;SDS011;22158;59.280;17.806;2023-01-28T21:14:45;7.40;;;2.58;;
35667;SDS011;22158;59.280;17.806;2023-01-28T21:17:13;8.00;;;2.72;;
35667;SDS011;22158;59.280;17.806;2023-01-28T21:19:38;9.00;;;2.85;;
35667;SDS011;22158;59.280;17.806;2023-01-28T21:22:04;7.47;;;2.78;;
35667;SDS011;22158;59.280;17.806;2023-01-28T21:24:32;5.68;;;3.00;;
35667;SDS011;22158;59.280;17.806;2023-01-28T21:26:58;3.83;;;2.13;;
35667;SDS011;22158;59.280;17.806;2023-01-28T21:29:24;11.82;;;2.78;;
35667;SDS011;22158;59.280;17.806;2023-01-28T21:31:49;14.48;;;3.38;;
35667;SDS011;22158;59.280;17.806;2023-01-28T21:34:15;5.90;;;3.08;;
35667;SDS011;22158;59.280;17.806;2023-01-28T21:36:41;20.45;;;7.43;;
35667;SDS011;22158;59.280;17.806;2023-01-28T21:39:07;19.35;;;6.40;;
35667;SDS011;22158;59.280;17.806;2023-01-28T21:41:34;14.80;;;5.40;;
35667;SDS011;22158;59.280;17.806;2023-01-28T21:44:00;7.00;;;3.67;;
35667;SDS011;22158;59.280;17.806;2023-01-28T21:46:27;14.15;;;4.72;;
35667;SDS011;22158;59.280;17.806;2023-01-28T21:48:55;13.82;;;6.15;;
35667;SDS011;22158;59.280;17.806;2023-01-28T21:51:22;12.73;;;6.00;;
35667;SDS011;22158;59.280;17.806;2023-01-28T21:54:00;10.80;;;4.00;;
35667;SDS011;22158;59.280;17.806;2023-01-28T21:56:26;8.63;;;2.80;;
35667;SDS011;22158;59.280;17.806;2023-01-28T21:58:52;19.50;;;3.97;;
35667;SDS011;22158;59.280;17.806;2023-01-28T22:01:36;4.72;;;2.28;;
35667;SDS011;22158;59.280;17.806;2023-01-28T22:04:02;9.43;;;3.20;;
35667;SDS011;22158;59.280;17.806;2023-01-28T22:06:28;9.02;;;2.40;;
35667;SDS011;22158;59.280;17.806;2023-01-28T22:08:54;6.40;;;2.50;;